Latest Weather Observations for Tindal

IDD60801

Issued at 1:01 pm CST Tuesday 28 June 2016 (issued every 30 minutes, with the page automatically refreshed every 10 minutes)

About weather observations | Map of weather stations | Latest weather observations for NT | Other Formats
Station Details ID: 014932 Name: TINDAL RAAF Lat: -14.52 Lon: 132.38 Height: 133.6 m
Data from the previous 72 hours. | See also: Recent months at Tindal
Date/Time
CST
Temp
°C
App
Temp
°C
Dew
Point
°C
Rel
Hum
%
Delta-T
°C
Wind Press
QNH
hPa
Press
MSL
hPa
Rain since
9am
mm
Dir  Spd
km/h
Gust
km/h
Spd
kts
Gust
kts
28/01:00pm 29.3 25.6 12.7 36 9.8 E 24 33 13 18 1016.0 - 0.0
28/12:30pm 28.7 25.0 12.6 37 9.5 ESE 24 35 13 19 1016.8 - 0.0
28/12:00pm 28.3 25.1 13.0 39 9.0 E 22 32 12 17 1017.3 1016.7 0.0
28/11:30am 26.9 23.1 12.5 40 8.4 SE 24 35 13 19 1017.7 - 0.0
28/11:00am 26.3 22.3 13.1 44 7.8 E 26 39 14 21 1017.9 - 0.0
28/10:30am 25.2 20.4 12.8 46 7.2 ESE 30 39 16 21 1018.1 - 0.0
28/10:00am 25.1 21.4 12.7 46 7.2 ESE 24 35 13 19 1018.3 - 0.0
28/09:30am 23.9 19.6 12.2 48 6.7 ESE 26 39 14 21 1018.1 - 0.0
28/09:00am 23.3 19.6 11.4 47 6.7 SE 22 32 12 17 1017.9 1017.3 0.0
28/08:30am 21.9 19.8 11.0 50 6.1 ESE 13 19 7 10 1017.9 - 0.0
28/08:00am 21.2 18.6 10.7 51 5.8 SSE 15 20 8 11 1017.2 - 0.0
28/07:30am 20.2 18.4 10.9 55 5.1 SE 11 15 6 8 1016.9 - 0.0
28/07:00am 19.7 17.9 10.7 56 4.9 SE 11 13 6 7 1016.4 - 0.0
28/06:30am 20.0 18.6 11.0 56 5.0 SE 9 15 5 8 1016.0 - 0.0
28/06:00am 19.3 17.6 11.3 60 4.4 SSE 11 15 6 8 1015.6 1015.1 0.0
28/05:30am 18.7 16.8 11.8 64 3.8 SSE 13 13 7 7 1015.5 - 0.0
28/05:00am 19.3 18.2 11.8 62 4.2 SSE 9 11 5 6 1015.5 - 0.0
28/04:30am 20.0 18.8 11.7 59 4.6 SE 9 11 5 6 1015.4 - 0.0
28/04:00am 20.6 19.1 11.8 57 4.9 SE 11 13 6 7 1015.2 - 0.0
28/03:30am 21.3 19.4 11.9 55 5.3 SSE 13 15 7 8 1015.1 - 0.0
28/03:00am 21.7 19.5 12.0 54 5.5 SSE 15 17 8 9 1015.2 1014.7 0.0
28/02:30am 21.8 20.1 12.4 55 5.4 SSE 13 15 7 8 1015.4 - 0.0
28/02:00am 22.4 20.7 12.4 53 5.7 SE 13 17 7 9 1015.7 - 0.0
28/01:30am 22.6 20.9 12.5 53 5.8 SSE 13 15 7 8 1015.8 - 0.0
28/01:00am 23.5 21.9 12.8 51 6.2 SSE 13 17 7 9 1015.8 - 0.0
28/12:30am 23.6 21.8 13.2 52 6.1 SE 15 19 8 10 1015.7 - 0.0
28/12:00am 23.7 22.2 14.1 55 5.7 SE 15 17 8 9 1015.7 1015.2 0.0
 
Date/Time
CST
Temp
°C
App
Temp
°C
Dew
Point
°C
Rel
Hum
%
Delta-T
°C
Wind Press
QNH
hPa
Press
MSL
hPa
Rain since
9am
mm
Dir  Spd
km/h
Gust
km/h
Spd
kts
Gust
kts
27/11:30pm 24.3 23.3 14.7 55 5.7 ESE 13 19 7 10 1015.7 - 0.0
27/11:00pm 23.2 22.5 15.3 61 4.8 SSE 13 13 7 7 1015.5 - 0.0
27/10:30pm 24.0 23.2 15.2 58 5.3 SE 13 15 7 8 1015.4 - 0.0
27/10:00pm 24.5 23.8 15.4 57 5.5 SE 13 13 7 7 1015.3 - 0.0
27/09:30pm 25.9 25.4 15.0 51 6.6 ESE 11 15 6 8 1015.1 - 0.0
27/09:00pm 27.8 26.9 14.8 45 7.9 ESE 13 15 7 8 1014.9 1014.4 0.0
27/08:30pm 28.2 27.1 14.4 42 8.3 E 13 19 7 10 1014.5 - 0.0
27/08:00pm 28.6 27.2 14.4 41 8.6 ESE 15 19 8 10 1014.1 - 0.0
27/07:30pm 28.4 27.3 14.3 42 8.5 ESE 13 15 7 8 1013.8 - 0.0
27/07:00pm 29.0 27.9 14.4 41 8.9 ESE 13 17 7 9 1013.4 - 0.0
27/06:30pm 29.9 29.4 14.8 39 9.3 ESE 11 15 6 8 1013.0 - 0.0
27/06:00pm 31.3 29.7 14.9 37 10.1 ESE 17 20 9 11 1012.7 1012.1 0.0
27/05:30pm 32.1 30.0 15.1 35 10.5 E 20 28 11 15 1012.4 - 0.0
27/05:00pm 32.7 29.9 14.3 32 11.3 E 22 32 12 17 1012.1 - 0.0
27/04:30pm 33.0 30.7 14.1 32 11.6 ESE 19 28 10 15 1011.9 - 0.0
27/04:00pm 33.1 30.7 13.7 31 11.8 SE 19 28 10 15 1011.8 - 0.0
27/03:30pm 33.3 30.0 13.9 31 11.9 ESE 24 32 13 17 1011.8 - 0.0
27/03:00pm 33.3 30.6 13.4 30 12.1 ESE 20 28 11 15 1011.9 1011.3 0.0
27/02:30pm 33.4 29.8 12.9 28 12.4 E 24 35 13 19 1012.2 - 0.0
27/02:00pm 33.3 30.8 13.4 30 12.1 E 19 28 10 15 1012.6 - 0.0
27/01:30pm 33.0 30.7 14.1 32 11.6 E 19 24 10 13 1013.1 - 0.0
27/01:00pm 32.4 30.5 14.1 33 11.2 ESE 17 22 9 12 1013.7 - 0.0
27/12:30pm 31.9 30.3 15.0 36 10.5 ESE 17 24 9 13 1014.1 - 0.0
27/12:00pm 31.2 29.2 15.6 39 9.7 SE 20 24 11 13 1014.6 1014.1 0.0
27/11:30am 30.2 29.2 15.5 41 9.1 ENE 15 20 8 11 1014.7 - 0.0
27/11:00am 29.5 29.5 16.3 45 8.3 E 11 17 6 9 1015.0 - 0.0
27/10:30am 28.0 27.9 15.0 45 7.9 ESE 9 15 5 8 1015.4 - 0.0
27/10:00am 27.3 26.2 14.3 45 7.8 SE 13 19 7 10 1015.5 - 0.0
27/09:30am 26.1 24.5 13.9 47 7.3 SE 15 20 8 11 1015.5 - 0.0
27/09:00am 24.0 22.9 13.2 50 6.3 SE 11 15 6 8 1015.4 1014.9 0.0
27/08:30am 21.8 20.4 13.4 59 4.9 SSE 13 17 7 9 1015.2 - 0.0
27/08:00am 18.5 17.8 13.1 71 3.1 SE 9 13 5 7 1014.7 - 0.0
27/07:30am 17.3 16.3 13.4 78 2.2 SSE 11 15 6 8 1014.2 - 0.0
27/07:00am 16.9 16.5 13.0 78 2.2 SE 7 9 4 5 1013.7 - 0.0
27/06:30am 16.6 15.8 12.9 79 2.1 SSE 9 13 5 7 1013.5 - 0.0
27/06:00am 16.4 15.7 13.1 81 1.9 SE 9 9 5 5 1013.2 1012.7 0.0
27/05:30am 16.3 15.8 12.8 80 2.0 SE 7 9 4 5 1013.0 - 0.0
27/05:00am 16.4 16.2 12.9 80 2.0 SE 6 7 3 4 1012.9 - 0.0
27/04:30am 16.4 15.6 12.9 80 2.0 SSE 9 11 5 6 1012.7 - 0.0
27/04:00am 16.6 16.4 13.1 80 2.0 SE 6 7 3 4 1012.6 - 0.0
27/03:30am 16.9 17.1 13.2 79 2.1 SE 4 7 2 4 1012.6 - 0.0
27/03:00am 16.9 17.1 13.2 79 2.1 SE 4 7 2 4 1012.7 1012.1 0.0
27/02:30am 17.5 18.6 13.4 77 2.3 CALM 0 0 0 0 1012.9 - 0.0
27/02:00am 18.0 19.0 13.3 74 2.7 CALM 0 0 0 0 1013.3 - 0.0
27/01:30am 18.3 19.4 13.4 73 2.8 CALM 0 6 0 3 1013.5 - 0.0
27/01:00am 18.8 19.9 13.4 71 3.1 CALM 0 0 0 0 1013.5 - 0.0
27/12:30am 19.4 20.5 13.6 69 3.3 CALM 0 0 0 0 1013.5 - 0.0
27/12:00am 19.4 19.8 13.6 69 3.3 ESE 4 7 2 4 1013.5 1013.0 0.0
 
Date/Time
CST
Temp
°C
App
Temp
°C
Dew
Point
°C
Rel
Hum
%
Delta-T
°C
Wind Press
QNH
hPa
Press
MSL
hPa
Rain since
9am
mm
Dir  Spd
km/h
Gust
km/h
Spd
kts
Gust
kts
26/11:30pm 19.3 18.8 13.7 70 3.2 SSE 9 11 5 6 1013.5 - 0.0
26/11:00pm 19.3 18.8 13.9 71 3.1 S 9 11 5 6 1013.5 - 0.0
26/10:30pm 19.8 19.9 14.0 69 3.4 SSE 6 9 3 5 1013.5 - 0.0
26/10:00pm 20.4 20.6 14.3 68 3.6 SSE 6 7 3 4 1013.4 - 0.0
26/09:30pm 20.9 20.9 14.1 65 4.0 SSE 7 9 4 5 1013.2 - 0.0
26/09:00pm 22.2 22.3 13.8 59 4.9 ESE 6 7 3 4 1013.1 1012.6 0.0
26/08:30pm 23.1 22.7 14.1 57 5.3 E 9 11 5 6 1012.9 - 0.0
26/08:00pm 23.5 23.5 14.2 56 5.5 E 7 9 4 5 1012.8 - 0.0
26/07:30pm 24.8 24.8 14.3 52 6.3 E 7 7 4 4 1012.5 - 0.0
26/07:00pm 26.3 26.7 14.7 48 7.0 E 6 7 3 4 1012.2 - 0.0
26/06:30pm 29.0 28.3 12.0 35 9.9 E 7 7 4 4 1011.9 - 0.0
26/06:00pm 31.3 30.3 11.1 29 11.8 SE 7 9 4 5 1011.7 1011.1 0.0
26/05:30pm 32.8 31.2 10.2 25 13.1 ESE 9 13 5 7 1011.4 - 0.0
26/05:00pm 33.4 32.0 9.4 23 13.7 E 7 17 4 9 1010.9 - 0.0
26/04:30pm 33.4 31.0 10.1 24 13.5 SSE 13 19 7 10 1010.8 - 0.0
26/04:00pm 34.2 31.8 8.8 21 14.4 ESE 11 17 6 9 1010.7 - 0.0
26/03:30pm 33.9 31.5 8.5 21 14.4 NE 11 17 6 9 1010.8 - 0.0
26/03:00pm 33.9 31.7 9.2 22 14.1 NE 11 19 6 10 1011.0 1010.4 0.0
26/02:30pm 33.7 30.4 9.7 23 13.8 E 17 26 9 14 1011.3 - 0.0
26/02:00pm 34.0 30.8 9.9 23 13.9 NE 17 20 9 11 1011.6 - 0.0
26/01:30pm 33.2 30.1 11.7 27 12.7 E 19 28 10 15 1012.2 - 0.0
26/01:00pm 32.9 32.0 11.4 27 12.7 ENE 7 19 4 10 1012.9 - 0.0
26/12:30pm 32.8 31.9 14.9 34 11.1 ENE 13 20 7 11 1013.6 - 0.0
26/12:00pm 32.0 31.0 15.5 37 10.3 E 15 20 8 11 1014.3 1013.8 0.0
26/11:30am 30.6 30.1 15.8 40 9.2 NE 13 20 7 11 1014.8 - 0.0
26/11:00am 30.9 30.4 16.9 43 8.9 E 15 28 8 15 1015.1 - 0.0
26/10:30am 29.4 29.3 16.9 47 7.9 E 13 19 7 10 1015.3 - 0.0
26/10:00am 28.2 29.2 17.7 53 6.7 ENE 9 17 5 9 1015.3 - 0.0
26/09:30am 26.8 28.1 17.6 57 5.8 E 7 11 4 6 1015.2 - 0.0
26/09:00am 25.0 26.0 17.7 64 4.6 E 9 13 5 7 1014.8 1014.3 0.0
26/08:30am 22.5 23.6 16.5 69 3.7 ESE 6 7 3 4 1014.5 - 0.0
26/08:00am 19.8 19.9 15.4 76 2.6 SSE 9 11 5 6 1014.4 - 0.0
26/07:30am 17.6 17.9 14.5 82 1.8 SSE 6 7 3 4 1014.1 - 0.0
26/07:00am 17.5 17.5 14.2 81 1.9 SE 7 9 4 5 1013.9 - 0.0
26/06:30am 17.7 17.3 14.2 80 2.0 SSE 9 9 5 5 1013.7 - 0.0
26/06:00am 18.0 17.7 14.3 79 2.1 SSE 9 11 5 6 1013.3 1012.8 0.0
26/05:30am 18.2 17.4 14.1 77 2.4 SSE 11 11 6 6 1013.2 - 0.0
26/05:00am 18.4 17.2 14.1 76 2.5 SSE 13 13 7 7 1013.2 - 0.0
26/04:30am 18.3 19.2 14.0 76 2.5 ESE 2 11 1 6 1013.1 - 0.0
26/04:00am 18.6 18.6 13.7 73 2.8 ESE 6 7 3 4 1013.1 - 0.0
26/03:30am 19.4 19.4 13.6 69 3.3 ESE 6 7 3 4 1013.1 - 0.0
26/03:00am 19.9 19.7 13.6 67 3.6 ESE 7 9 4 5 1013.3 1012.8 0.0
26/02:30am 20.0 19.8 13.5 66 3.7 SE 7 9 4 5 1013.4 - 0.0
26/02:00am 20.4 19.5 13.6 65 3.9 SSE 11 11 6 6 1013.5 - 0.0
26/01:30am 21.7 21.3 14.1 62 4.5 SE 9 11 5 6 1013.4 - 0.0
26/01:00am 22.0 21.1 13.6 59 4.9 SE 11 13 6 7 1013.4 - 0.0
26/12:30am 22.8 21.8 13.3 55 5.5 ESE 11 13 6 7 1013.5 - 0.0
26/12:00am 24.5 23.4 13.1 49 6.6 ESE 11 15 6 8 1013.6 1013.1 0.0
 
Date/Time
CST
Temp
°C
App
Temp
°C
Dew
Point
°C
Rel
Hum
%
Delta-T
°C
Wind Press
QNH
hPa
Press
MSL
hPa
Rain since
9am
mm
Dir  Spd
km/h
Gust
km/h
Spd
kts
Gust
kts
25/11:30pm 25.3 23.4 12.9 46 7.2 E 15 22 8 12 1013.5 - 0.0
25/11:00pm 25.8 23.8 12.6 44 7.7 E 15 24 8 13 1013.6 - 0.0
25/10:30pm 21.4 21.2 13.6 61 4.5 SE 7 11 4 6 1013.7 - 0.0
25/10:00pm 21.9 21.5 14.0 61 4.6 SE 9 11 5 6 1013.6 - 0.0
25/09:30pm 22.4 22.1 14.5 61 4.7 SE 9 11 5 6 1013.6 - 0.0
25/09:00pm 22.6 22.4 14.7 61 4.7 SE 9 11 5 6 1013.4 1012.9 0.0
25/08:30pm 23.0 23.0 15.1 61 4.7 SE 9 11 5 6 1013.2 - 0.0
25/08:00pm 23.6 23.7 15.6 61 4.8 ESE 9 9 5 5 1013.0 - 0.0
25/07:30pm 24.3 24.4 15.5 58 5.3 SE 9 11 5 6 1012.9 - 0.0
25/07:00pm 25.8 26.0 15.8 54 6.1 ESE 9 9 5 5 1012.7 - 0.0
25/06:30pm 28.3 28.2 14.9 44 8.2 SE 9 11 5 6 1012.4 - 0.0
25/06:00pm 30.6 30.1 13.8 35 10.2 E 9 13 5 7 1012.1 1011.5 0.0
25/05:30pm 31.7 30.3 13.5 33 11.0 E 13 17 7 9 1011.6 - 0.0
25/05:00pm 32.2 30.4 13.4 32 11.4 E 15 20 8 11 1011.5 - 0.0
25/04:30pm 32.6 30.8 13.3 31 11.7 ENE 15 26 8 14 1011.4 - 0.0
25/04:00pm 33.1 30.9 13.2 30 12.0 E 17 26 9 14 1011.4 - 0.0
25/03:30pm 32.9 30.6 13.0 30 12.0 E 17 28 9 15 1011.4 - 0.0
25/03:00pm 32.8 30.6 13.4 30 11.8 E 17 26 9 14 1011.7 1011.1 0.0
25/02:30pm 32.5 30.4 13.7 32 11.4 ESE 17 24 9 13 1011.9 - 0.0
25/02:00pm 32.4 30.0 14.5 33 11.0 E 20 28 11 15 1012.2 - 0.0
25/01:30pm 31.7 30.2 15.2 36 10.2 ENE 17 28 9 15 1012.5 - 0.0

Other Formats:

Comma delimited format used in spreadsheet applications
http://www.bom.gov.au/fwo/IDD60801/IDD60801.94131.axf

JavaScript Object Notation format (JSON) in row-major order
http://www.bom.gov.au/fwo/IDD60801/IDD60801.94131.json